Flight Track Log - Related Links

Times and Time Zones

All times are in EDT time to prevent confusion due to time zone crossing. See the GJS6221 flight status page for this flight to view local times or setup timezone preferences in your user account.

Time Position Orientation Groundspeed Altitude Reporting Facility
EDT Latitude Longitude Course Direction KTS MPH feet Rate Location/Type
Mon 07:30:06 AM 45.4497 -73.7475 189° South 461 531 1,400  Level Boston Center
Mon 07:31:18 AM 45.3833 -73.8000 209° Southwest 200 230 4,200 2,045 Climbing Montreal Center
Mon 07:32:18 AM 45.3167 -73.8167 190° South 250 288 5,900 2,450 Climbing Montreal Center
Mon 07:33:18 AM 45.2500 -73.8667 208° Southwest 270 311 9,100 2,750 Climbing Montreal Center
Mon 07:34:00 AM 44.9240 -74.0855 189° South  Level FlightAware Approximate
Mon 07:34:18 AM 45.1667 -73.9000 196° South 280 322 11,400  Level Montreal Center
Mon 07:35:00 AM 44.8246 -74.1085 189° South  Level FlightAware Approximate
Mon 07:35:18 AM 45.0833 -73.8833 172° South 340 391 12,800  Level Montreal Center
Mon 07:36:18 AM 44.9833 -73.8833 180° South 360 414 14,900 2,100 Climbing Montreal Center
Mon 07:37:18 AM 44.8667 -73.8833 180° South 380 437 17,000 1,981 Climbing Montreal Center
Mon 07:38:04 AM 44.8064 -73.8883 183° South 384 442 18,400 1,514 Climbing Boston Center
Mon 07:39:05 AM 44.6981 -73.8856 179° South 384 442 19,700 1,339 Climbing Boston Center
Mon 07:40:05 AM 44.5814 -73.8800 178° South 407 468 21,100 1,300 Climbing Boston Center
Mon 07:41:05 AM 44.4836 -73.8744 178° South 426 490 22,300 1,339 Climbing Boston Center
Mon 07:42:06 AM 44.3525 -73.8686 178° South 426 490 23,800 1,420 Climbing Boston Center
Mon 07:43:16 AM 44.2067 -73.8650 179° South 437 503 25,400 1,420 Climbing Boston Center
Mon 07:44:17 AM 44.0817 -73.8592 178° South 442 509 26,900 1,377 Climbing Boston Center
Mon 07:45:18 AM 43.9608 -73.8533 178° South 442 509 28,200 1,190 Climbing Boston Center
Mon 07:46:18 AM 43.8256 -73.8472 178° South 442 509 29,300 403 Climbing Boston Center
Mon 07:47:17 AM 43.7006 -73.8414 178° South 442 509 29,000 -857 Descending Boston Center
Mon 07:48:17 AM 43.5881 -73.8417 180° South 442 509 27,600 -1,500 Descending Boston Center
Mon 07:49:17 AM 43.4672 -73.8361 178° South 442 509 26,000 -1,736 Descending Boston Center
Mon 07:50:18 AM 43.3339 -73.8272 177° South 442 509 24,100 -992 Descending Boston Center
Mon 07:51:18 AM 43.2172 -73.8247 179° South 432 497 24,000 -807 Descending Boston Center
Mon 07:52:17 AM 43.0986 -73.8192 178° South 432 497 22,500 -1,350 Descending Boston Center
Mon 07:53:18 AM 42.9839 -73.8167 179° South 422 486 21,300 -1,240 Descending Boston Center
Mon 07:54:18 AM 42.8736 -73.8114 178° South 417 480 20,000 -645 Descending Boston Center
Mon 07:55:19 AM 42.7633 -73.8033 177° South 405 466 20,000  Level Boston Center
Mon 07:56:16 AM 42.6467 -73.7836 173° South 405 466 20,000  Level Boston Center
Mon 07:57:16 AM 42.5469 -73.7647 172° South 405 466 20,000  Level Boston Center
Mon 07:58:17 AM 42.4347 -73.7425 172° South 410 472 20,000 -639 Level Boston Center
Mon 07:59:18 AM 42.3222 -73.7289 175° South 405 466 18,700 -1,008 Descending Boston Center
Mon 08:00:16 AM 42.2033 -73.7433 185° South 399 459 18,000 -356 Descending Boston Center
Mon 08:01:16 AM 42.1031 -73.7608 187° South 407 468 18,000  Level Boston Center
Mon 08:02:17 AM 41.9800 -73.7750 185° South 407 468 18,000 -298 Level Boston Center
Mon 08:03:17 AM 41.8797 -73.7925 187° South 407 468 17,400 -942 Descending Boston Center
Mon 08:04:18 AM 41.7586 -73.8094 186° South 407 468 16,100 -1,587 Descending Boston Center
Mon 08:05:18 AM 41.6625 -73.8267 188° South 399 459 14,200 -1,918 Descending Boston Center
Mon 08:06:45 AM 41.5000 -73.8667 190° South 367 422 11,400 -1,529 Descending New York TRACON
Mon 08:07:51 AM 41.4000 -73.8500 173° South 341 392 10,300 -1,143 Descending New York TRACON
Mon 08:08:51 AM 41.3333 -73.7833 143° Southeast 309 356 9,000 -1,500 Descending New York TRACON
Mon 08:09:51 AM 41.2500 -73.7167 149° Southeast 304 350 7,300 -1,550 Descending New York TRACON
Mon 08:10:51 AM 41.2000 -73.6667 143° Southeast 283 326 5,900 -1,524 Descending New York TRACON
Mon 08:11:57 AM 41.1167 -73.6333 163° South 270 311 4,100 -905 Descending New York TRACON
Mon 08:12:57 AM 41.0500 -73.6500 191° South 267 307 4,000 -50 Descending New York TRACON
Mon 08:13:57 AM 40.9833 -73.7000 210° Southwest 265 305 4,000 -53 Level New York TRACON
Mon 08:14:51 AM 40.9333 -73.7500 217° Southwest 267 307 3,900 -1,150 Descending New York TRACON
Mon 08:15:57 AM 40.8667 -73.8000 210° Southwest 251 289 1,700 -1,500 Descending New York TRACON
Mon 08:16:51 AM 40.8167 -73.8333 207° Southwest 194 223 900 -889 Descending New York TRACON
Mon 08:18:00 AM 40.7667 -73.8667 180° South  Level FlightAware Approximate
Mon 08:25:00 AM 40.7772 -73.8726 180° South  Level Estimated
Mon 08:26:00 AM 40.7772 -73.8726 180° South  Level Estimated

Login

Don't have an account? Register now (free) for customized features, flight alerts, and more!